sensor_id;sensor_type;location;lat;lon;timestamp;pressure;altitude;pressure_sealevel;temperature;humidity
54882;BME280;40775;51.448;4.742;2023-02-04T00:00:17;103325.56;;;9.03;100.00
54882;BME280;40775;51.448;4.742;2023-02-04T00:02:44;103323.38;;;9.09;100.00
54882;BME280;40775;51.448;4.742;2023-02-04T00:05:12;103325.09;;;9.08;100.00
54882;BME280;40775;51.448;4.742;2023-02-04T00:07:39;103312.72;;;9.06;100.00
54882;BME280;40775;51.448;4.742;2023-02-04T00:10:08;103321.69;;;9.09;100.00
54882;BME280;40775;51.448;4.742;2023-02-04T00:12:36;103324.19;;;9.08;100.00
54882;BME280;40775;51.448;4.742;2023-02-04T00:15:04;103317.63;;;9.01;100.00
54882;BME280;40775;51.448;4.742;2023-02-04T00:17:31;103327.72;;;9.08;100.00
54882;BME280;40775;51.448;4.742;2023-02-04T00:19:58;103322.84;;;9.01;100.00
54882;BME280;40775;51.448;4.742;2023-02-04T00:22:25;103327.19;;;9.01;100.00
54882;BME280;40775;51.448;4.742;2023-02-04T00:24:54;103326.38;;;9.02;100.00
54882;BME280;40775;51.448;4.742;2023-02-04T00:27:22;103316.81;;;9.02;100.00
54882;BME280;40775;51.448;4.742;2023-02-04T00:29:49;103323.75;;;9.02;100.00
54882;BME280;40775;51.448;4.742;2023-02-04T00:32:16;103336.75;;;9.00;100.00
54882;BME280;40775;51.448;4.742;2023-02-04T00:34:43;103335.06;;;9.01;100.00
54882;BME280;40775;51.448;4.742;2023-02-04T00:37:10;103327.69;;;8.95;100.00
54882;BME280;40775;51.448;4.742;2023-02-04T00:39:37;103335.66;;;8.96;100.00
54882;BME280;40775;51.448;4.742;2023-02-04T00:42:04;103328.41;;;8.92;100.00
54882;BME280;40775;51.448;4.742;2023-02-04T00:44:32;103332.03;;;8.94;100.00
54882;BME280;40775;51.448;4.742;2023-02-04T00:46:59;103332.84;;;8.93;100.00
54882;BME280;40775;51.448;4.742;2023-02-04T00:49:26;103333.13;;;8.98;100.00
54882;BME280;40775;51.448;4.742;2023-02-04T00:51:53;103329.31;;;8.93;100.00
54882;BME280;40775;51.448;4.742;2023-02-04T00:54:20;103336.38;;;8.94;100.00
54882;BME280;40775;51.448;4.742;2023-02-04T00:56:47;103333.84;;;8.95;100.00
54882;BME280;40775;51.448;4.742;2023-02-04T00:59:14;103333.13;;;8.98;100.00
54882;BME280;40775;51.448;4.742;2023-02-04T01:01:41;103338.19;;;8.95;100.00
54882;BME280;40775;51.448;4.742;2023-02-04T01:04:09;103335.66;;;8.96;100.00
54882;BME280;40775;51.448;4.742;2023-02-04T01:06:36;103336.38;;;8.94;100.00
54882;BME280;40775;51.448;4.742;2023-02-04T01:09:04;103340.69;;;8.93;100.00
54882;BME280;40775;51.448;4.742;2023-02-04T01:11:31;103349.47;;;8.94;100.00
54882;BME280;40775;51.448;4.742;2023-02-04T01:13:59;103348.44;;;8.92;100.00
54882;BME280;40775;51.448;4.742;2023-02-04T01:16:26;103346.94;;;8.95;100.00
54882;BME280;40775;51.448;4.742;2023-02-04T01:18:53;103347.75;;;8.94;100.00
54882;BME280;40775;51.448;4.742;2023-02-04T01:21:24;103344.22;;;8.94;100.00
54882;BME280;40775;51.448;4.742;2023-02-04T01:23:52;103351.19;;;8.93;100.00
54882;BME280;40775;51.448;4.742;2023-02-04T01:26:19;103351.19;;;8.93;100.00
54882;BME280;40775;51.448;4.742;2023-02-04T01:28:46;103353.78;;;8.93;100.00
54882;BME280;40775;51.448;4.742;2023-02-04T01:31:13;103357.13;;;8.91;100.00
54882;BME280;40775;51.448;4.742;2023-02-04T01:33:41;103361.44;;;8.90;100.00
54882;BME280;40775;51.448;4.742;2023-02-04T01:36:08;103353.59;;;8.90;100.00
54882;BME280;40775;51.448;4.742;2023-02-04T01:38:35;103358.84;;;8.90;100.00
54882;BME280;40775;51.448;4.742;2023-02-04T01:41:03;103364.06;;;8.90;100.00
54882;BME280;40775;51.448;4.742;2023-02-04T01:43:31;103357.22;;;8.92;100.00
54882;BME280;40775;51.448;4.742;2023-02-04T01:45:58;103354.59;;;8.92;100.00
54882;BME280;40775;51.448;4.742;2023-02-04T01:48:28;103358.22;;;8.94;100.00
54882;BME280;40775;51.448;4.742;2023-02-04T01:51:08;103357.94;;;8.90;100.00
54882;BME280;40775;51.448;4.742;2023-02-04T01:53:37;103345.84;;;8.92;100.00
54882;BME280;40775;51.448;4.742;2023-02-04T01:56:17;103354.41;;;8.89;100.00
54882;BME280;40775;51.448;4.742;2023-02-04T01:58:45;103363.06;;;8.88;100.00
54882;BME280;40775;51.448;4.742;2023-02-04T02:04:01;103368.50;;;8.91;100.00
54882;BME280;40775;51.448;4.742;2023-02-04T02:06:29;103369.31;;;8.90;100.00
54882;BME280;40775;51.448;4.742;2023-02-04T02:08:56;103376.97;;;8.87;100.00
54882;BME280;40775;51.448;4.742;2023-02-04T02:11:25;103374.34;;;8.87;100.00
54882;BME280;40775;51.448;4.742;2023-02-04T02:13:53;103372.63;;;8.88;100.00
54882;BME280;40775;51.448;4.742;2023-02-04T02:16:21;103370.13;;;8.89;100.00
54882;BME280;40775;51.448;4.742;2023-02-04T02:18:48;103375.34;;;8.89;100.00
54882;BME280;40775;51.448;4.742;2023-02-04T02:21:23;103376.16;;;8.88;100.00
54882;BME280;40775;51.448;4.742;2023-02-04T02:23:55;103375.34;;;8.89;100.00
54882;BME280;40775;51.448;4.742;2023-02-04T02:26:23;103378.88;;;8.90;100.00
54882;BME280;40775;51.448;4.742;2023-02-04T02:28:51;103379.78;;;8.90;100.00
54882;BME280;40775;51.448;4.742;2023-02-04T02:31:20;103383.31;;;8.91;100.00
54882;BME280;40775;51.448;4.742;2023-02-04T02:33:48;103382.22;;;8.87;100.00
54882;BME280;40775;51.448;4.742;2023-02-04T02:36:15;103385.84;;;8.89;100.00
54882;BME280;40775;51.448;4.742;2023-02-04T02:38:43;103383.22;;;8.89;100.00
54882;BME280;40775;51.448;4.742;2023-02-04T02:41:10;103389.25;;;8.88;100.00
54882;BME280;40775;51.448;4.742;2023-02-04T02:43:37;103385.63;;;8.86;100.00
54882;BME280;40775;51.448;4.742;2023-02-04T02:46:05;103386.66;;;8.88;100.00
54882;BME280;40775;51.448;4.742;2023-02-04T02:48:32;103383.22;;;8.89;100.00
54882;BME280;40775;51.448;4.742;2023-02-04T02:50:59;103378.78;;;8.88;100.00
54882;BME280;40775;51.448;4.742;2023-02-04T02:53:27;103383.00;;;8.86;100.00
54882;BME280;40775;51.448;4.742;2023-02-04T02:55:54;103386.66;;;8.88;100.00
54882;BME280;40775;51.448;4.742;2023-02-04T02:58:32;103389.25;;;8.88;100.00
54882;BME280;40775;51.448;4.742;2023-02-04T03:01:05;103389.25;;;8.88;100.00
54882;BME280;40775;51.448;4.742;2023-02-04T03:03:36;103383.13;;;8.88;100.00
54882;BME280;40775;51.448;4.742;2023-02-04T03:06:14;103401.34;;;8.86;100.00
54882;BME280;40775;51.448;4.742;2023-02-04T03:08:43;103394.41;;;8.87;100.00
54882;BME280;40775;51.448;4.742;2023-02-04T03:11:10;103391.78;;;8.87;100.00
54882;BME280;40775;51.448;4.742;2023-02-04T03:13:37;103392.59;;;8.86;100.00
54882;BME280;40775;51.448;4.742;2023-02-04T03:16:06;103387.44;;;8.87;100.00
54882;BME280;40775;51.448;4.742;2023-02-04T03:18:35;103392.69;;;8.87;100.00
54882;BME280;40775;51.448;4.742;2023-02-04T03:21:03;103400.53;;;8.87;100.00
54882;BME280;40775;51.448;4.742;2023-02-04T03:23:36;103402.25;;;8.87;100.00
54882;BME280;40775;51.448;4.742;2023-02-04T03:26:04;103407.50;;;8.87;100.00
54882;BME280;40775;51.448;4.742;2023-02-04T03:28:32;103410.22;;;8.88;100.00
54882;BME280;40775;51.448;4.742;2023-02-04T03:30:59;103408.50;;;8.89;100.00
54882;BME280;40775;51.448;4.742;2023-02-04T03:33:27;103402.47;;;8.90;100.00
54882;BME280;40775;51.448;4.742;2023-02-04T03:35:58;103409.41;;;8.89;100.00
54882;BME280;40775;51.448;4.742;2023-02-04T03:38:25;103414.66;;;8.89;100.00
54882;BME280;40775;51.448;4.742;2023-02-04T03:40:52;103425.13;;;8.89;100.00
54882;BME280;40775;51.448;4.742;2023-02-04T03:43:19;103424.13;;;8.87;100.00
54882;BME280;40775;51.448;4.742;2023-02-04T03:45:47;103417.06;;;8.86;100.00
54882;BME280;40775;51.448;4.742;2023-02-04T03:48:14;103432.78;;;8.86;100.00
54882;BME280;40775;51.448;4.742;2023-02-04T03:50:41;103427.53;;;8.86;100.00
54882;BME280;40775;51.448;4.742;2023-02-04T03:53:09;103428.47;;;8.87;100.00
54882;BME280;40775;51.448;4.742;2023-02-04T03:55:36;103421.41;;;8.86;100.00
54882;BME280;40775;51.448;4.742;2023-02-04T03:58:03;103417.88;;;8.85;100.00
54882;BME280;40775;51.448;4.742;2023-02-04T04:00:31;103412.75;;;8.87;100.00
54882;BME280;40775;51.448;4.742;2023-02-04T04:02:59;103409.00;;;8.83;100.00
54882;BME280;40775;51.448;4.742;2023-02-04T04:05:26;103415.25;;;8.85;100.00
54882;BME280;40775;51.448;4.742;2023-02-04T04:07:54;103417.78;;;8.84;100.00
54882;BME280;40775;51.448;4.742;2023-02-04T04:10:21;103421.41;;;8.86;100.00
54882;BME280;40775;51.448;4.742;2023-02-04T04:12:48;103422.09;;;8.83;100.00
54882;BME280;40775;51.448;4.742;2023-02-04T04:15:16;103428.16;;;8.82;100.00
54882;BME280;40775;51.448;4.742;2023-02-04T04:17:43;103442.16;;;8.83;100.00
54882;BME280;40775;51.448;4.742;2023-02-04T04:20:10;103440.44;;;8.83;100.00
54882;BME280;40775;51.448;4.742;2023-02-04T04:22:38;103433.38;;;8.82;100.00
54882;BME280;40775;51.448;4.742;2023-02-04T04:25:07;103446.47;;;8.82;100.00
54882;BME280;40775;51.448;4.742;2023-02-04T04:27:34;103455.16;;;8.81;100.00
54882;BME280;40775;51.448;4.742;2023-02-04T04:30:02;103448.19;;;8.82;100.00
54882;BME280;40775;51.448;4.742;2023-02-04T04:32:29;103457.88;;;8.83;100.00
54882;BME280;40775;51.448;4.742;2023-02-04T04:34:56;103450.13;;;8.84;100.00
54882;BME280;40775;51.448;4.742;2023-02-04T04:37:24;103461.59;;;8.86;100.00
54882;BME280;40775;51.448;4.742;2023-02-04T04:39:51;103467.66;;;8.85;100.00
54882;BME280;40775;51.448;4.742;2023-02-04T04:42:18;103468.44;;;8.84;100.00
54882;BME280;40775;51.448;4.742;2023-02-04T04:44:45;103472.69;;;8.82;100.00
54882;BME280;40775;51.448;4.742;2023-02-04T04:47:12;103473.69;;;8.84;100.00
54882;BME280;40775;51.448;4.742;2023-02-04T04:49:39;103463.22;;;8.84;100.00
54882;BME280;40775;51.448;4.742;2023-02-04T04:52:06;103464.91;;;8.84;100.00
54882;BME280;40775;51.448;4.742;2023-02-04T04:54:33;103456.97;;;8.82;100.00
54882;BME280;40775;51.448;4.742;2023-02-04T04:57:00;103450.91;;;8.83;100.00
54882;BME280;40775;51.448;4.742;2023-02-04T04:59:27;103451.72;;;8.82;100.00
54882;BME280;40775;51.448;4.742;2023-02-04T05:01:54;103458.88;;;8.85;100.00
54882;BME280;40775;51.448;4.742;2023-02-04T05:04:21;103457.88;;;8.83;100.00
54882;BME280;40775;51.448;4.742;2023-02-04T05:06:49;103454.34;;;8.82;100.00
54882;BME280;40775;51.448;4.742;2023-02-04T05:09:16;103459.69;;;8.84;100.00
54882;BME280;40775;51.448;4.742;2023-02-04T05:11:44;103451.03;;;8.85;100.00
54882;BME280;40775;51.448;4.742;2023-02-04T05:14:10;103453.63;;;8.85;100.00
54882;BME280;40775;51.448;4.742;2023-02-04T05:16:38;103452.13;;;8.88;100.00
54882;BME280;40775;51.448;4.742;2023-02-04T05:19:05;103454.75;;;8.88;100.00
54882;BME280;40775;51.448;4.742;2023-02-04T05:21:32;103460.38;;;8.81;100.00
54882;BME280;40775;51.448;4.742;2023-02-04T05:23:59;103457.97;;;8.84;100.00
54882;BME280;40775;51.448;4.742;2023-02-04T05:26:26;103460.59;;;8.84;100.00
54882;BME280;40775;51.448;4.742;2023-02-04T05:29:00;103463.09;;;8.83;100.00
54882;BME280;40775;51.448;4.742;2023-02-04T05:31:27;103463.22;;;8.84;100.00
54882;BME280;40775;51.448;4.742;2023-02-04T05:33:54;103475.50;;;8.85;100.00
54882;BME280;40775;51.448;4.742;2023-02-04T05:36:23;103467.53;;;8.84;100.00
54882;BME280;40775;51.448;4.742;2023-02-04T05:38:50;103474.69;;;8.86;100.00
54882;BME280;40775;51.448;4.742;2023-02-04T05:41:17;103479.94;;;8.86;100.00
54882;BME280;40775;51.448;4.742;2023-02-04T05:43:45;103479.94;;;8.86;100.00
54882;BME280;40775;51.448;4.742;2023-02-04T05:46:12;103491.13;;;8.84;100.00
54882;BME280;40775;51.448;4.742;2023-02-04T05:48:39;103487.81;;;8.86;100.00
54882;BME280;40775;51.448;4.742;2023-02-04T05:51:06;103489.41;;;8.84;100.00
54882;BME280;40775;51.448;4.742;2023-02-04T05:53:33;103484.97;;;8.83;100.00
54882;BME280;40775;51.448;4.742;2023-02-04T05:56:00;103493.63;;;8.82;100.00
54882;BME280;40775;51.448;4.742;2023-02-04T05:58:27;103492.81;;;8.83;100.00
54882;BME280;40775;51.448;4.742;2023-02-04T06:01:00;103498.06;;;8.83;100.00
54882;BME280;40775;51.448;4.742;2023-02-04T06:03:29;103495.44;;;8.83;100.00
54882;BME280;40775;51.448;4.742;2023-02-04T06:05:56;103495.44;;;8.83;100.00
54882;BME280;40775;51.448;4.742;2023-02-04T06:08:24;103501.50;;;8.82;100.00
54882;BME280;40775;51.448;4.742;2023-02-04T06:10:51;103505.03;;;8.83;100.00
54882;BME280;40775;51.448;4.742;2023-02-04T06:13:18;103517.22;;;8.82;100.00
54882;BME280;40775;51.448;4.742;2023-02-04T06:15:45;103508.44;;;8.82;100.00
54882;BME280;40775;51.448;4.742;2023-02-04T06:18:12;103502.41;;;8.83;100.00
54882;BME280;40775;51.448;4.742;2023-02-04T06:20:39;103514.81;;;8.85;100.00
54882;BME280;40775;51.448;4.742;2023-02-04T06:23:07;103513.88;;;8.85;100.00
54882;BME280;40775;51.448;4.742;2023-02-04T06:25:35;103524.16;;;8.82;100.00
54882;BME280;40775;51.448;4.742;2023-02-04T06:28:02;103519.72;;;8.81;100.00
54882;BME280;40775;51.448;4.742;2023-02-04T06:30:29;103530.19;;;8.81;100.00
54882;BME280;40775;51.448;4.742;2023-02-04T06:32:57;103527.59;;;8.81;100.00
54882;BME280;40775;51.448;4.742;2023-02-04T06:35:24;103540.78;;;8.82;100.00
54882;BME280;40775;51.448;4.742;2023-02-04T06:37:51;103531.81;;;8.79;100.00
54882;BME280;40775;51.448;4.742;2023-02-04T06:40:18;103543.19;;;8.79;100.00
54882;BME280;40775;51.448;4.742;2023-02-04T06:42:45;103545.00;;;8.80;100.00
54882;BME280;40775;51.448;4.742;2023-02-04T06:45:12;103546.72;;;8.80;100.00
54882;BME280;40775;51.448;4.742;2023-02-04T06:47:39;103542.50;;;8.82;100.00
54882;BME280;40775;51.448;4.742;2023-02-04T06:50:07;103539.97;;;8.83;100.00
54882;BME280;40775;51.448;4.742;2023-02-04T06:52:34;103539.06;;;8.83;100.00
54882;BME280;40775;51.448;4.742;2023-02-04T06:55:01;103545.13;;;8.82;100.00
54882;BME280;40775;51.448;4.742;2023-02-04T06:57:28;103553.09;;;8.83;100.00
54882;BME280;40775;51.448;4.742;2023-02-04T06:59:55;103553.09;;;8.83;100.00
54882;BME280;40775;51.448;4.742;2023-02-04T07:02:22;103558.44;;;8.85;100.00
54882;BME280;40775;51.448;4.742;2023-02-04T07:04:50;103557.63;;;8.86;100.00
54882;BME280;40775;51.448;4.742;2023-02-04T07:07:17;103550.56;;;8.85;100.00
54882;BME280;40775;51.448;4.742;2023-02-04T07:09:44;103558.31;;;8.83;100.00
54882;BME280;40775;51.448;4.742;2023-02-04T07:12:10;103552.16;;;8.83;100.00
54882;BME280;40775;51.448;4.742;2023-02-04T07:14:37;103555.81;;;8.85;100.00
54882;BME280;40775;51.448;4.742;2023-02-04T07:17:04;103561.03;;;8.85;100.00
54882;BME280;40775;51.448;4.742;2023-02-04T07:19:31;103556.50;;;8.82;100.00
54882;BME280;40775;51.448;4.742;2023-02-04T07:21:59;103559.13;;;8.82;100.00
54882;BME280;40775;51.448;4.742;2023-02-04T07:24:26;103557.53;;;8.84;100.00
54882;BME280;40775;51.448;4.742;2023-02-04T07:26:53;103559.22;;;8.84;100.00
54882;BME280;40775;51.448;4.742;2023-02-04T07:29:20;103563.44;;;8.82;100.00
54882;BME280;40775;51.448;4.742;2023-02-04T07:31:52;103560.94;;;8.83;100.00
54882;BME280;40775;51.448;4.742;2023-02-04T07:34:20;103565.38;;;8.84;100.00
54882;BME280;40775;51.448;4.742;2023-02-04T07:36:47;103570.50;;;8.83;100.00
54882;BME280;40775;51.448;4.742;2023-02-04T07:39:14;103572.22;;;8.82;100.00
54882;BME280;40775;51.448;4.742;2023-02-04T07:41:41;103572.22;;;8.82;100.00
54882;BME280;40775;51.448;4.742;2023-02-04T07:44:08;103575.84;;;8.84;100.00
54882;BME280;40775;51.448;4.742;2023-02-04T07:46:35;103581.09;;;8.84;100.00
54882;BME280;40775;51.448;4.742;2023-02-04T07:49:03;103586.34;;;8.84;100.00
54882;BME280;40775;51.448;4.742;2023-02-04T07:51:30;103588.16;;;8.85;100.00
54882;BME280;40775;51.448;4.742;2023-02-04T07:53:56;103575.97;;;8.86;100.00
54882;BME280;40775;51.448;4.742;2023-02-04T07:56:24;103576.06;;;8.87;100.00
54882;BME280;40775;51.448;4.742;2023-02-04T07:58:51;103571.03;;;8.90;100.00
54882;BME280;40775;51.448;4.742;2023-02-04T08:01:18;103586.66;;;8.89;100.00
54882;BME280;40775;51.448;4.742;2023-02-04T08:03:45;103591.09;;;8.90;100.00
54882;BME280;40775;51.448;4.742;2023-02-04T08:06:12;103590.50;;;8.94;100.00
54882;BME280;40775;51.448;4.742;2023-02-04T08:08:39;103596.44;;;8.91;100.00
54882;BME280;40775;51.448;4.742;2023-02-04T08:11:06;103596.44;;;8.91;100.00
54882;BME280;40775;51.448;4.742;2023-02-04T08:13:33;103603.59;;;8.94;100.00
54882;BME280;40775;51.448;4.742;2023-02-04T08:16:00;103598.38;;;8.94;100.00
54882;BME280;40775;51.448;4.742;2023-02-04T08:18:28;103600.19;;;8.95;100.00
54882;BME280;40775;51.448;4.742;2023-02-04T08:20:55;103598.56;;;8.97;100.00
54882;BME280;40775;51.448;4.742;2023-02-04T08:23:22;103603.81;;;8.97;100.00
54882;BME280;40775;51.448;4.742;2023-02-04T08:25:49;103603.72;;;8.95;100.00
54882;BME280;40775;51.448;4.742;2023-02-04T08:28:16;103604.94;;;9.01;100.00
54882;BME280;40775;51.448;4.742;2023-02-04T08:30:44;103607.78;;;9.04;100.00
54882;BME280;40775;51.448;4.742;2023-02-04T08:33:11;103612.25;;;9.05;100.00
54882;BME280;40775;51.448;4.742;2023-02-04T08:35:38;103623.75;;;9.07;100.00
54882;BME280;40775;51.448;4.742;2023-02-04T08:38:05;103621.13;;;9.07;100.00
54882;BME280;40775;51.448;4.742;2023-02-04T08:40:32;103625.88;;;9.12;100.00
54882;BME280;40775;51.448;4.742;2023-02-04T08:42:59;103623.38;;;9.14;100.00
54882;BME280;40775;51.448;4.742;2023-02-04T08:45:26;103625.28;;;9.16;100.00
54882;BME280;40775;51.448;4.742;2023-02-04T08:47:53;103628.03;;;9.18;100.00
54882;BME280;40775;51.448;4.742;2023-02-04T08:50:20;103629.03;;;9.20;100.00
54882;BME280;40775;51.448;4.742;2023-02-04T08:52:47;103626.63;;;9.23;100.00
54882;BME280;40775;51.448;4.742;2023-02-04T08:55:15;103636.31;;;9.24;100.00
54882;BME280;40775;51.448;4.742;2023-02-04T08:57:41;103631.88;;;9.23;100.00
54882;BME280;40775;51.448;4.742;2023-02-04T09:00:11;103637.00;;;9.21;100.00
54882;BME280;40775;51.448;4.742;2023-02-04T09:02:38;103646.78;;;9.24;100.00
54882;BME280;40775;51.448;4.742;2023-02-04T09:05:06;103648.81;;;9.28;100.00
54882;BME280;40775;51.448;4.742;2023-02-04T09:07:33;103646.56;;;9.33;100.00
54882;BME280;40775;51.448;4.742;2023-02-04T09:10:00;103648.47;;;9.35;100.00
54882;BME280;40775;51.448;4.742;2023-02-04T09:12:27;103653.94;;;9.38;100.00
54882;BME280;40775;51.448;4.742;2023-02-04T09:14:54;103648.38;;;9.34;100.00
54882;BME280;40775;51.448;4.742;2023-02-04T09:17:21;103651.53;;;9.41;100.00
54882;BME280;40775;51.448;4.742;2023-02-04T09:19:48;103647.28;;;9.43;100.00
54882;BME280;40775;51.448;4.742;2023-02-04T09:22:16;103661.22;;;9.42;100.00
54882;BME280;40775;51.448;4.742;2023-02-04T09:24:43;103655.66;;;9.38;100.00
54882;BME280;40775;51.448;4.742;2023-02-04T09:27:10;103668.88;;;9.39;100.00
54882;BME280;40775;51.448;4.742;2023-02-04T09:29:37;103662.72;;;9.39;100.00
54882;BME280;40775;51.448;4.742;2023-02-04T09:32:04;103660.63;;;9.46;100.00
54882;BME280;40775;51.448;4.742;2023-02-04T09:34:31;103662.53;;;9.49;100.00
54882;BME280;40775;51.448;4.742;2023-02-04T09:36:58;103663.94;;;9.44;100.00
54882;BME280;40775;51.448;4.742;2023-02-04T09:39:25;103664.25;;;9.48;100.00
54882;BME280;40775;51.448;4.742;2023-02-04T09:41:52;103663.25;;;9.46;100.00
54882;BME280;40775;51.448;4.742;2023-02-04T09:44:24;103671.69;;;9.42;100.00
54882;BME280;40775;51.448;4.742;2023-02-04T09:46:56;103675.44;;;9.46;100.00
54882;BME280;40775;51.448;4.742;2023-02-04T09:49:25;103677.38;;;9.48;100.00
54882;BME280;40775;51.448;4.742;2023-02-04T09:51:53;103674.25;;;9.54;100.00
54882;BME280;40775;51.448;4.742;2023-02-04T09:54:22;103680.63;;;9.57;100.00
54882;BME280;40775;51.448;4.742;2023-02-04T09:56:51;103679.25;;;9.63;100.00
54882;BME280;40775;51.448;4.742;2023-02-04T09:59:21;103677.53;;;9.63;100.00
54882;BME280;40775;51.448;4.742;2023-02-04T10:02:03;103689.97;;;9.66;100.00
54882;BME280;40775;51.448;4.742;2023-02-04T10:04:36;103691.78;;;9.67;100.00
54882;BME280;40775;51.448;4.742;2023-02-04T10:07:10;103694.41;;;9.67;100.00
54882;BME280;40775;51.448;4.742;2023-02-04T10:09:39;103694.09;;;9.62;100.00
54882;BME280;40775;51.448;4.742;2023-02-04T10:12:06;103693.38;;;9.65;100.00
54882;BME280;40775;51.448;4.742;2023-02-04T10:14:33;103696.31;;;9.69;100.00
54882;BME280;40775;51.448;4.742;2023-02-04T10:17:00;103702.91;;;9.76;100.00
54882;BME280;40775;51.448;4.742;2023-02-04T10:19:29;103697.06;;;9.80;100.00
54882;BME280;40775;51.448;4.742;2023-02-04T10:21:57;103699.88;;;9.83;100.00
54882;BME280;40775;51.448;4.742;2023-02-04T10:24:26;103694.06;;;9.87;100.00
54882;BME280;40775;51.448;4.742;2023-02-04T10:27:10;103701.47;;;9.68;100.00
54882;BME280;40775;51.448;4.742;2023-02-04T10:29:38;103699.47;;;9.77;100.00
54882;BME280;40775;51.448;4.742;2023-02-04T10:32:24;103695.09;;;9.89;100.00
54882;BME280;40775;51.448;4.742;2023-02-04T10:34:58;103699.84;;;9.95;100.00
54882;BME280;40775;51.448;4.742;2023-02-04T10:37:25;103697.09;;;9.93;100.00
54882;BME280;40775;51.448;4.742;2023-02-04T10:39:53;103707.53;;;9.80;100.00
54882;BME280;40775;51.448;4.742;2023-02-04T10:42:26;103699.78;;;9.81;100.00
54882;BME280;40775;51.448;4.742;2023-02-04T10:44:54;103709.91;;;9.88;100.00
54882;BME280;40775;51.448;4.742;2023-02-04T10:47:28;103709.22;;;9.91;100.00
54882;BME280;40775;51.448;4.742;2023-02-04T10:50:17;103712.56;;;10.02;100.00
54882;BME280;40775;51.448;4.742;2023-02-04T10:52:58;103709.03;;;10.01;100.00
54882;BME280;40775;51.448;4.742;2023-02-04T10:55:47;103708.44;;;10.05;100.00
54882;BME280;40775;51.448;4.742;2023-02-04T10:58:20;103708.63;;;10.08;100.00
54882;BME280;40775;51.448;4.742;2023-02-04T11:00:48;103712.28;;;10.10;100.00
54882;BME280;40775;51.448;4.742;2023-02-04T11:03:25;103715.81;;;10.11;100.00
54882;BME280;40775;51.448;4.742;2023-02-04T11:05:57;103705.22;;;10.09;100.00
54882;BME280;40775;51.448;4.742;2023-02-04T11:08:36;103707.72;;;10.08;100.00
54882;BME280;40775;51.448;4.742;2023-02-04T11:11:16;103712.06;;;10.07;100.00
54882;BME280;40775;51.448;4.742;2023-02-04T11:18:59;103702.41;;;10.19;100.00
54882;BME280;40775;51.448;4.742;2023-02-04T11:27:03;103699.59;;;10.16;100.00
54882;BME280;40775;51.448;4.742;2023-02-04T11:29:36;103699.69;;;10.18;100.00
54882;BME280;40775;51.448;4.742;2023-02-04T11:32:34;103705.97;;;10.20;100.00
54882;BME280;40775;51.448;4.742;2023-02-04T11:37:40;103703.66;;;10.38;100.00
54882;BME280;40775;51.448;4.742;2023-02-04T11:40:25;103700.47;;;10.42;100.00
54882;BME280;40775;51.448;4.742;2023-02-04T11:43:10;103705.69;;;10.29;100.00
54882;BME280;40775;51.448;4.742;2023-02-04T11:45:39;103698.41;;;10.38;100.00
54882;BME280;40775;51.448;4.742;2023-02-04T11:48:19;103702.50;;;10.46;100.00
54882;BME280;40775;51.448;4.742;2023-02-04T11:50:58;103695.09;;;10.40;100.00
54882;BME280;40775;51.448;4.742;2023-02-04T11:53:33;103693.50;;;10.42;100.00
54882;BME280;40775;51.448;4.742;2023-02-04T11:56:01;103687.09;;;10.39;100.00
54882;BME280;40775;51.448;4.742;2023-02-04T11:58:29;103686.13;;;10.50;100.00
54882;BME280;40775;51.448;4.742;2023-02-04T12:00:57;103696.63;;;10.50;100.00
54882;BME280;40775;51.448;4.742;2023-02-04T12:03:29;103695.09;;;10.53;100.00
54882;BME280;40775;51.448;4.742;2023-02-04T12:05:57;103690.97;;;10.57;100.00
54882;BME280;40775;51.448;4.742;2023-02-04T12:08:32;103698.53;;;10.52;100.00
54882;BME280;40775;51.448;4.742;2023-02-04T12:11:10;103690.25;;;10.60;100.00
54882;BME280;40775;51.448;4.742;2023-02-04T12:13:49;103687.31;;;10.55;100.00
54882;BME280;40775;51.448;4.742;2023-02-04T12:16:18;103690.56;;;10.51;100.00
54882;BME280;40775;51.448;4.742;2023-02-04T12:18:45;103697.63;;;10.52;100.00
54882;BME280;40775;51.448;4.742;2023-02-04T12:21:12;103693.28;;;10.52;100.00
54882;BME280;40775;51.448;4.742;2023-02-04T12:23:44;103686.00;;;10.62;100.00
54882;BME280;40775;51.448;4.742;2023-02-04T12:26:11;103682.19;;;10.70;100.00
54882;BME280;40775;51.448;4.742;2023-02-04T12:28:40;103685.47;;;10.67;100.00
54882;BME280;40775;51.448;4.742;2023-02-04T12:31:07;103690.34;;;10.61;100.00
54882;BME280;40775;51.448;4.742;2023-02-04T12:33:35;103692.78;;;10.58;100.00
54882;BME280;40775;51.448;4.742;2023-02-04T12:36:02;103693.16;;;10.64;100.00
54882;BME280;40775;51.448;4.742;2023-02-04T12:38:29;103695.00;;;10.65;100.00
54882;BME280;40775;51.448;4.742;2023-02-04T12:40:56;103690.75;;;10.67;100.00
54882;BME280;40775;51.448;4.742;2023-02-04T12:43:23;103692.78;;;10.58;100.00
54882;BME280;40775;51.448;4.742;2023-02-04T12:45:54;103690.53;;;10.64;100.00
54882;BME280;40775;51.448;4.742;2023-02-04T12:48:21;103683.66;;;10.66;100.00
54882;BME280;40775;51.448;4.742;2023-02-04T12:50:49;103691.44;;;10.65;100.00
54882;BME280;40775;51.448;4.742;2023-02-04T12:53:16;103692.25;;;10.64;100.00
54882;BME280;40775;51.448;4.742;2023-02-04T12:55:43;103691.56;;;10.66;100.00
54882;BME280;40775;51.448;4.742;2023-02-04T12:58:10;103690.75;;;10.67;100.00
54882;BME280;40775;51.448;4.742;2023-02-04T13:00:37;103699.66;;;10.69;100.00
54882;BME280;40775;51.448;4.742;2023-02-04T13:03:04;103689.97;;;10.68;100.00
54882;BME280;40775;51.448;4.742;2023-02-04T13:05:31;103699.84;;;10.72;100.00
54882;BME280;40775;51.448;4.742;2023-02-04T13:07:59;103693.91;;;10.75;100.00
54882;BME280;40775;51.448;4.742;2023-02-04T13:10:27;103689.44;;;10.74;100.00